createdAt,value
2023-01-18T00:00:50.854Z,7.22
2023-01-18T00:03:18.095Z,7.05
2023-01-18T00:05:45.391Z,7.75
2023-01-18T00:08:13.950Z,8.20
2023-01-18T00:10:41.198Z,8.23
2023-01-18T00:13:08.567Z,7.43
2023-01-18T00:15:36.768Z,7.10
2023-01-18T00:18:04.743Z,7.07
2023-01-18T00:20:32.289Z,7.23
2023-01-18T00:23:01.023Z,6.43
2023-01-18T00:25:28.654Z,7.20
2023-01-18T00:27:56.286Z,6.93
2023-01-18T00:30:25.897Z,7.18
2023-01-18T00:32:55.351Z,6.93
2023-01-18T00:35:22.787Z,7.10
2023-01-18T00:37:51.616Z,6.65
2023-01-18T00:40:19.832Z,7.13
2023-01-18T00:43:06.036Z,6.50
2023-01-18T00:45:33.309Z,7.13
2023-01-18T00:48:02.705Z,7.28
2023-01-18T00:50:30.448Z,8.95
2023-01-18T00:53:00.011Z,6.13
2023-01-18T00:55:27.857Z,6.68
2023-01-18T00:57:55.038Z,6.40
2023-01-18T01:00:23.723Z,7.20
2023-01-18T01:02:51.722Z,6.55
2023-01-18T01:05:39.214Z,7.18
2023-01-18T01:08:06.808Z,7.47
2023-01-18T01:10:34.924Z,6.05
2023-01-18T01:13:21.239Z,6.53
2023-01-18T01:16:07.130Z,6.70
2023-01-18T01:18:53.343Z,6.60
2023-01-18T01:21:39.300Z,6.68
2023-01-18T01:24:25.738Z,6.77
2023-01-18T01:26:53.012Z,7.05
2023-01-18T01:29:20.225Z,6.00
2023-01-18T01:31:47.442Z,6.00
2023-01-18T01:34:14.750Z,6.82
2023-01-18T01:36:42.062Z,6.37
2023-01-18T01:39:10.994Z,6.35
2023-01-18T01:41:38.686Z,5.90
2023-01-18T01:44:19.417Z,5.30
2023-01-18T01:46:50.613Z,6.05
2023-01-18T01:49:24.765Z,6.00
2023-01-18T01:51:53.857Z,5.90
2023-01-18T01:54:26.502Z,5.38
2023-01-18T01:56:56.128Z,5.25
2023-01-18T01:59:24.087Z,5.72
2023-01-18T02:01:51.523Z,6.00
2023-01-18T02:04:19.139Z,6.22
2023-01-18T02:06:46.454Z,5.78
2023-01-18T02:09:23.002Z,4.97
2023-01-18T02:11:52.264Z,5.38
2023-01-18T02:14:20.861Z,5.80
2023-01-18T02:17:06.889Z,5.55
2023-01-18T02:19:53.043Z,5.75
2023-01-18T02:22:20.273Z,5.90
2023-01-18T02:24:50.521Z,5.72
2023-01-18T02:27:26.356Z,5.03
2023-01-18T02:30:16.026Z,5.18
2023-01-18T02:33:04.580Z,4.95
2023-01-18T02:35:42.996Z,5.88
2023-01-18T02:38:13.370Z,4.80
2023-01-18T02:40:43.555Z,5.37
2023-01-18T02:43:30.410Z,6.30
2023-01-18T02:46:17.939Z,5.20
2023-01-18T02:48:45.811Z,4.65
2023-01-18T02:51:13.078Z,5.20
2023-01-18T02:53:44.123Z,5.82
2023-01-18T02:56:19.974Z,5.15
2023-01-18T02:58:53.852Z,5.80
2023-01-18T03:01:27.486Z,5.38
2023-01-18T03:04:00.508Z,6.35
2023-01-18T03:06:29.526Z,5.97
2023-01-18T03:08:57.825Z,5.53
2023-01-18T03:11:28.129Z,5.35
2023-01-18T03:13:55.343Z,5.20
2023-01-18T03:16:24.497Z,5.45
2023-01-18T03:19:02.598Z,5.27
2023-01-18T03:21:32.935Z,6.28
2023-01-18T03:24:01.344Z,5.75
2023-01-18T03:26:29.135Z,5.68
2023-01-18T03:29:19.847Z,5.82
2023-01-18T03:32:24.045Z,6.47
2023-01-18T03:35:09.735Z,6.40
2023-01-18T03:37:41.735Z,6.22
2023-01-18T03:40:11.081Z,6.10
2023-01-18T03:42:43.852Z,6.45
2023-01-18T03:45:37.987Z,5.27
2023-01-18T03:48:06.115Z,6.18
2023-01-18T03:50:48.589Z,6.28
2023-01-18T03:53:18.178Z,5.85
2023-01-18T03:55:48.907Z,5.40
2023-01-18T03:58:17.559Z,5.87
2023-01-18T04:00:44.889Z,5.75
2023-01-18T04:03:12.262Z,5.93
2023-01-18T04:05:39.598Z,6.13
2023-01-18T04:08:07.158Z,6.32
2023-01-18T04:10:34.460Z,6.20
2023-01-18T04:13:02.048Z,6.47
2023-01-18T04:15:29.366Z,6.10
2023-01-18T04:17:56.632Z,5.13
2023-01-18T04:20:24.382Z,6.13
2023-01-18T04:22:52.489Z,6.73
2023-01-18T04:25:20.079Z,7.18
2023-01-18T04:27:47.378Z,6.00
2023-01-18T04:30:14.694Z,7.05
2023-01-18T04:32:42.846Z,6.10
2023-01-18T04:35:10.455Z,5.80
2023-01-18T04:37:38.327Z,6.07
2023-01-18T04:40:06.335Z,6.55
2023-01-18T04:42:33.938Z,6.60
2023-01-18T04:45:01.436Z,5.93
2023-01-18T04:47:29.122Z,5.73
2023-01-18T04:49:59.445Z,6.43
2023-01-18T04:52:26.863Z,5.30
2023-01-18T04:54:54.234Z,6.07
2023-01-18T04:57:21.572Z,5.28
2023-01-18T04:59:48.741Z,6.53
2023-01-18T05:02:16.061Z,5.70
2023-01-18T05:04:43.726Z,5.75
2023-01-18T05:07:11.429Z,6.05
2023-01-18T05:09:38.710Z,5.72
2023-01-18T05:12:05.979Z,6.03
2023-01-18T05:14:33.609Z,6.60
2023-01-18T05:17:00.894Z,5.85
2023-01-18T05:19:30.515Z,6.35
2023-01-18T05:21:57.828Z,6.75
2023-01-18T05:24:25.123Z,6.40
2023-01-18T05:26:52.710Z,5.82
2023-01-18T05:29:19.913Z,5.63
2023-01-18T05:31:47.242Z,6.28
2023-01-18T05:34:14.516Z,5.55
2023-01-18T05:36:41.763Z,6.30
2023-01-18T05:39:09.375Z,6.53
2023-01-18T05:41:36.635Z,5.95
2023-01-18T05:44:04.069Z,5.97
2023-01-18T05:46:31.311Z,6.72
2023-01-18T05:48:59.116Z,6.37
2023-01-18T05:51:26.460Z,5.90
2023-01-18T05:53:53.698Z,6.18
2023-01-18T05:56:21.009Z,5.95
2023-01-18T05:58:48.277Z,7.35
2023-01-18T06:01:15.582Z,6.20
2023-01-18T06:03:42.910Z,6.00
2023-01-18T06:06:10.326Z,6.82
2023-01-18T06:08:37.678Z,5.97
2023-01-18T06:11:06.445Z,5.60
2023-01-18T06:13:33.798Z,6.67
2023-01-18T06:16:01.569Z,6.15
2023-01-18T06:18:29.960Z,7.63
2023-01-18T06:21:01.196Z,6.47
2023-01-18T06:23:29.359Z,7.30
2023-01-18T06:25:56.650Z,6.50
2023-01-18T06:28:24.156Z,7.32
2023-01-18T06:30:55.315Z,6.68
2023-01-18T06:33:23.020Z,5.95
2023-01-18T06:35:50.350Z,6.28
2023-01-18T06:38:17.763Z,6.17
2023-01-18T06:40:45.093Z,6.07
2023-01-18T06:43:14.150Z,6.63
2023-01-18T06:45:41.692Z,6.53
2023-01-18T06:48:09.152Z,5.90
2023-01-18T06:50:36.407Z,6.67
2023-01-18T06:53:03.899Z,7.13
2023-01-18T06:55:31.137Z,6.72
2023-01-18T06:57:58.334Z,7.05
2023-01-18T07:00:25.686Z,6.75
2023-01-18T07:02:53.156Z,7.07
2023-01-18T07:05:20.888Z,5.97
2023-01-18T07:07:48.139Z,6.05
2023-01-18T07:10:16.610Z,6.18
2023-01-18T07:12:48.550Z,6.45
2023-01-18T07:15:21.990Z,5.63
2023-01-18T07:17:50.471Z,6.10
2023-01-18T07:20:17.934Z,6.43
2023-01-18T07:22:45.257Z,6.65
2023-01-18T07:25:18.804Z,6.25
2023-01-18T07:27:46.300Z,6.03
2023-01-18T07:30:13.716Z,6.68
2023-01-18T07:32:41.645Z,5.97
2023-01-18T07:35:08.951Z,6.80
2023-01-18T07:37:36.630Z,5.75
2023-01-18T07:40:04.105Z,5.80
2023-01-18T07:42:31.504Z,5.60
2023-01-18T07:44:59.423Z,6.28
2023-01-18T07:47:26.973Z,6.13
2023-01-18T07:49:54.523Z,5.82
2023-01-18T07:52:21.758Z,4.97
2023-01-18T07:54:49.055Z,5.10
2023-01-18T07:57:16.289Z,6.53
2023-01-18T07:59:43.795Z,5.80
2023-01-18T08:02:13.418Z,5.50
2023-01-18T08:04:41.917Z,7.10
2023-01-18T08:07:09.190Z,7.20
2023-01-18T08:09:36.502Z,6.57
2023-01-18T08:12:03.869Z,6.43
2023-01-18T08:14:31.122Z,5.93
2023-01-18T08:16:58.381Z,6.93
2023-01-18T08:19:25.617Z,7.03
2023-01-18T08:21:52.918Z,6.30
2023-01-18T08:24:20.229Z,6.75
2023-01-18T08:26:47.816Z,6.78
2023-01-18T08:29:15.057Z,6.90
2023-01-18T08:31:42.262Z,7.28
2023-01-18T08:34:09.822Z,7.00
2023-01-18T08:36:37.269Z,6.30
2023-01-18T08:39:04.615Z,7.35
2023-01-18T08:41:32.130Z,8.23
2023-01-18T08:44:00.192Z,9.00
2023-01-18T08:46:27.692Z,10.75
2023-01-18T08:48:56.037Z,10.25
2023-01-18T08:51:23.788Z,8.13
2023-01-18T08:53:57.221Z,7.75
2023-01-18T08:56:24.933Z,7.68
2023-01-18T08:58:52.366Z,7.40
2023-01-18T09:01:19.992Z,6.65
2023-01-18T09:03:48.801Z,6.50
2023-01-18T09:06:16.814Z,6.38
2023-01-18T09:08:44.155Z,6.30
2023-01-18T09:11:11.918Z,5.95
2023-01-18T09:13:58.553Z,5.95
2023-01-18T09:16:27.369Z,6.75
2023-01-18T09:18:56.314Z,6.28
2023-01-18T09:21:23.821Z,6.40
2023-01-18T09:23:51.178Z,6.28
2023-01-18T09:26:20.636Z,5.30
2023-01-18T09:28:51.013Z,5.82
2023-01-18T09:31:18.829Z,6.22
2023-01-18T09:33:53.304Z,5.90
2023-01-18T09:36:24.003Z,6.03
2023-01-18T09:38:51.355Z,5.63
2023-01-18T09:41:33.222Z,5.15
2023-01-18T09:44:07.909Z,5.60
2023-01-18T09:46:37.254Z,5.90
2023-01-18T09:49:06.129Z,4.90
2023-01-18T09:51:40.213Z,5.07
2023-01-18T09:54:13.505Z,5.22
2023-01-18T09:56:50.055Z,4.88
2023-01-18T09:59:22.464Z,4.80
2023-01-18T10:01:50.504Z,5.00
2023-01-18T10:04:30.033Z,5.18
2023-01-18T10:07:01.678Z,5.63
2023-01-18T10:09:35.182Z,5.05
2023-01-18T10:12:26.141Z,5.10
2023-01-18T10:15:05.555Z,4.68
2023-01-18T10:17:38.271Z,5.07
2023-01-18T10:20:24.323Z,5.00
2023-01-18T10:23:06.443Z,9.65
2023-01-18T10:25:41.729Z,5.30
2023-01-18T10:28:15.143Z,5.05
2023-01-18T10:30:45.786Z,5.05
2023-01-18T10:33:21.079Z,5.13
2023-01-18T10:35:50.675Z,4.25
2023-01-18T10:38:20.572Z,4.80
2023-01-18T10:40:50.439Z,5.15
2023-01-18T10:43:20.574Z,4.43
2023-01-18T10:45:48.304Z,4.50
2023-01-18T10:48:19.068Z,4.50
2023-01-18T10:50:50.000Z,4.83
2023-01-18T10:53:25.049Z,4.70
2023-01-18T10:55:54.402Z,5.10
2023-01-18T10:58:30.411Z,4.60
2023-01-18T11:00:58.978Z,5.22
2023-01-18T11:03:26.586Z,5.40
2023-01-18T11:05:54.253Z,4.82
2023-01-18T11:08:23.223Z,4.95
2023-01-18T11:11:46.167Z,5.10
2023-01-18T11:14:27.110Z,3.67
2023-01-18T11:16:58.566Z,5.33
2023-01-18T11:19:26.279Z,4.35
2023-01-18T11:21:54.149Z,4.38
2023-01-18T11:24:27.543Z,3.88
2023-01-18T11:26:59.785Z,4.90
2023-01-18T11:29:29.372Z,4.13
2023-01-18T11:31:57.123Z,4.60
2023-01-18T11:34:32.797Z,4.53
2023-01-18T11:37:01.063Z,4.75
2023-01-18T11:39:28.302Z,4.38
2023-01-18T11:42:19.065Z,5.73
2023-01-18T11:45:06.711Z,6.13
2023-01-18T11:47:50.556Z,4.90
2023-01-18T11:50:28.307Z,5.00
2023-01-18T11:53:04.285Z,5.20
2023-01-18T11:55:38.244Z,4.70
2023-01-18T11:58:13.942Z,4.70
2023-01-18T12:00:46.476Z,6.25
2023-01-18T12:03:25.920Z,4.93
2023-01-18T12:06:03.792Z,5.50
2023-01-18T12:08:31.077Z,5.27
2023-01-18T12:10:58.296Z,5.35
2023-01-18T12:13:28.674Z,5.45
2023-01-18T12:15:55.983Z,5.47
2023-01-18T12:18:27.149Z,4.60
2023-01-18T12:21:00.517Z,4.60
2023-01-18T12:23:38.194Z,4.70
2023-01-18T12:26:27.218Z,5.13
2023-01-18T12:28:57.527Z,4.78
2023-01-18T12:31:31.052Z,4.25
2023-01-18T12:34:06.328Z,4.87
2023-01-18T12:36:52.588Z,4.15
2023-01-18T12:39:23.098Z,3.85
2023-01-18T12:41:57.595Z,3.90
2023-01-18T12:44:28.808Z,3.30
2023-01-18T12:47:02.278Z,3.80
2023-01-18T12:49:31.268Z,2.65
2023-01-18T12:52:17.369Z,3.15
2023-01-18T12:54:51.060Z,2.80
2023-01-18T12:57:19.259Z,3.20
2023-01-18T12:59:46.588Z,2.30
2023-01-18T13:02:13.877Z,2.58
2023-01-18T13:04:44.912Z,3.33
2023-01-18T13:07:14.693Z,2.75
2023-01-18T13:09:44.640Z,2.67
2023-01-18T13:12:12.538Z,2.17
2023-01-18T13:14:44.816Z,2.22
2023-01-18T13:17:12.063Z,2.33
2023-01-18T13:19:44.570Z,2.33
2023-01-18T13:22:21.249Z,1.85
2023-01-18T13:24:54.726Z,2.00
2023-01-18T13:27:22.404Z,2.60
2023-01-18T13:29:49.716Z,2.53
2023-01-18T13:32:24.169Z,2.70
2023-01-18T13:35:18.000Z,3.20
2023-01-18T13:37:50.938Z,2.90
2023-01-18T13:40:26.113Z,2.75
2023-01-18T13:42:53.559Z,2.58
2023-01-18T13:45:20.818Z,2.53
2023-01-18T13:47:59.380Z,3.13
2023-01-18T13:50:35.491Z,3.03
2023-01-18T13:53:14.776Z,2.90
2023-01-18T13:55:48.740Z,2.38
2023-01-18T13:58:29.401Z,2.60
2023-01-18T14:00:58.619Z,2.30
2023-01-18T14:03:30.651Z,2.55
2023-01-18T14:05:58.591Z,2.30
2023-01-18T14:08:31.534Z,2.90
2023-01-18T14:11:19.274Z,1.90
2023-01-18T14:13:47.512Z,2.60
2023-01-18T14:16:23.570Z,2.55
2023-01-18T14:19:04.755Z,2.85
2023-01-18T14:21:50.959Z,2.58
2023-01-18T14:24:38.459Z,3.03
2023-01-18T14:27:07.806Z,3.65
2023-01-18T14:29:38.976Z,3.35
2023-01-18T14:32:07.484Z,3.25
2023-01-18T14:34:39.093Z,3.20
2023-01-18T14:37:28.591Z,2.95
2023-01-18T14:40:14.470Z,3.15
2023-01-18T14:43:05.666Z,3.03
2023-01-18T14:45:35.445Z,2.75
2023-01-18T14:48:02.707Z,3.47
2023-01-18T14:50:33.027Z,3.40
2023-01-18T14:53:00.727Z,4.20
2023-01-18T14:55:35.683Z,3.80
2023-01-18T14:58:05.629Z,2.92
2023-01-18T15:00:33.092Z,2.33
2023-01-18T15:03:02.201Z,4.40
2023-01-18T15:05:30.739Z,3.35
2023-01-18T15:07:58.718Z,4.10
2023-01-18T15:10:26.484Z,4.03
2023-01-18T15:12:55.434Z,4.22
2023-01-18T15:15:28.066Z,3.45
2023-01-18T15:17:57.381Z,3.08
2023-01-18T15:20:25.193Z,3.05
2023-01-18T15:22:54.150Z,3.00
2023-01-18T15:25:26.018Z,2.33
2023-01-18T15:27:53.719Z,3.00
2023-01-18T15:30:23.159Z,2.92
2023-01-18T15:32:53.220Z,2.85
2023-01-18T15:35:20.828Z,3.42
2023-01-18T15:37:48.228Z,2.60
2023-01-18T15:40:15.462Z,3.85
2023-01-18T15:42:44.124Z,5.07
2023-01-18T15:45:18.239Z,3.78
2023-01-18T15:48:08.941Z,4.40
2023-01-18T15:50:45.540Z,3.30
2023-01-18T15:53:20.209Z,3.67
2023-01-18T15:55:55.213Z,3.65
2023-01-18T15:58:41.788Z,3.30
2023-01-18T16:01:09.126Z,2.83
2023-01-18T16:03:40.622Z,3.30
2023-01-18T16:06:11.195Z,2.97
2023-01-18T16:08:39.561Z,3.40
2023-01-18T16:11:07.099Z,4.82
2023-01-18T16:13:36.144Z,2.95
2023-01-18T16:16:06.417Z,3.53
2023-01-18T16:18:34.201Z,3.65
2023-01-18T16:21:02.130Z,3.65
2023-01-18T16:23:29.716Z,3.38
2023-01-18T16:26:06.715Z,3.95
2023-01-18T16:28:34.013Z,4.10
2023-01-18T16:31:03.501Z,4.57
2023-01-18T16:33:30.871Z,3.20
2023-01-18T16:35:58.184Z,2.92
2023-01-18T16:38:25.429Z,3.00
2023-01-18T16:40:52.986Z,3.88
2023-01-18T16:43:22.081Z,3.60
2023-01-18T16:45:50.664Z,4.03
2023-01-18T16:48:19.850Z,3.33
2023-01-18T16:50:47.555Z,3.65
2023-01-18T16:53:15.052Z,3.67
2023-01-18T16:55:45.363Z,3.20
2023-01-18T16:58:16.431Z,2.88
2023-01-18T17:00:50.428Z,3.10
2023-01-18T17:03:17.705Z,2.85
2023-01-18T17:05:45.108Z,3.63
2023-01-18T17:08:14.113Z,2.65
2023-01-18T17:10:42.572Z,3.10
2023-01-18T17:13:10.016Z,2.55
2023-01-18T17:15:40.802Z,3.60
2023-01-18T17:18:09.360Z,2.80
2023-01-18T17:20:36.761Z,3.10
2023-01-18T17:23:03.960Z,3.35
2023-01-18T17:25:31.202Z,2.90
2023-01-18T17:27:58.903Z,3.05
2023-01-18T17:30:26.219Z,2.50
2023-01-18T17:32:53.520Z,2.83
2023-01-18T17:35:22.677Z,3.10
2023-01-18T17:37:54.575Z,3.10
2023-01-18T17:40:39.297Z,3.08
2023-01-18T17:43:07.792Z,3.72
2023-01-18T17:45:35.244Z,3.88
2023-01-18T17:48:02.525Z,2.80
2023-01-18T17:50:29.807Z,2.97
2023-01-18T17:52:57.715Z,4.03
2023-01-18T17:55:34.258Z,3.30
2023-01-18T17:58:02.331Z,2.47
2023-01-18T18:00:29.677Z,3.37
2023-01-18T18:02:57.443Z,3.50
2023-01-18T18:05:24.827Z,3.03
2023-01-18T18:07:52.160Z,3.88
2023-01-18T18:10:19.627Z,3.00
2023-01-18T18:12:46.912Z,2.97
2023-01-18T18:15:14.285Z,6.20
2023-01-18T18:17:41.585Z,4.53
2023-01-18T18:20:10.799Z,3.17
2023-01-18T18:22:38.465Z,3.05
2023-01-18T18:25:06.729Z,3.17
2023-01-18T18:27:44.822Z,2.85
2023-01-18T18:30:13.077Z,3.55
2023-01-18T18:32:40.511Z,3.20
2023-01-18T18:35:22.983Z,3.85
2023-01-18T18:37:52.246Z,4.80
2023-01-18T18:40:19.786Z,4.22
2023-01-18T18:43:00.597Z,4.57
2023-01-18T18:45:30.626Z,4.13
2023-01-18T18:47:57.906Z,4.25
2023-01-18T18:50:25.208Z,3.70
2023-01-18T18:52:52.533Z,3.60
2023-01-18T18:55:19.776Z,4.47
2023-01-18T18:57:47.029Z,4.97
2023-01-18T19:00:14.794Z,4.57
2023-01-18T19:02:42.096Z,3.90
2023-01-18T19:05:10.884Z,4.03
2023-01-18T19:07:38.430Z,4.75
2023-01-18T19:10:06.481Z,4.10
2023-01-18T19:12:33.819Z,4.45
2023-01-18T19:15:01.370Z,4.27
2023-01-18T19:17:31.464Z,3.80
2023-01-18T19:19:59.158Z,4.55
2023-01-18T19:22:26.741Z,4.18
2023-01-18T19:24:53.999Z,3.83
2023-01-18T19:27:21.865Z,4.20
2023-01-18T19:29:49.180Z,4.93
2023-01-18T19:32:16.550Z,4.55
2023-01-18T19:34:43.755Z,4.65
2023-01-18T19:37:12.378Z,4.85
2023-01-18T19:39:39.655Z,4.87
2023-01-18T19:42:07.234Z,3.88
2023-01-18T19:44:34.547Z,4.38
2023-01-18T19:47:02.022Z,4.75
2023-01-18T19:49:29.322Z,3.33
2023-01-18T19:51:56.641Z,3.90
2023-01-18T19:54:23.986Z,4.93
2023-01-18T19:56:51.473Z,4.68
2023-01-18T19:59:18.786Z,4.38
2023-01-18T20:01:46.274Z,5.22
2023-01-18T20:04:14.038Z,5.07
2023-01-18T20:06:43.472Z,3.70
2023-01-18T20:09:19.554Z,3.67
2023-01-18T20:11:48.247Z,4.25
2023-01-18T20:14:15.842Z,4.15
2023-01-18T20:16:45.669Z,4.70
2023-01-18T20:19:13.817Z,4.70
2023-01-18T20:21:41.078Z,3.83
2023-01-18T20:24:09.273Z,3.72
2023-01-18T20:26:40.017Z,3.35
2023-01-18T20:29:08.426Z,4.53
2023-01-18T20:31:37.171Z,4.32
2023-01-18T20:34:05.216Z,4.70
2023-01-18T20:36:34.944Z,4.38
2023-01-18T20:39:02.520Z,3.45
2023-01-18T20:41:29.814Z,4.28
2023-01-18T20:43:57.256Z,4.20
2023-01-18T20:46:24.601Z,3.75
2023-01-18T20:48:51.906Z,4.18
2023-01-18T20:51:19.314Z,4.50
2023-01-18T20:53:46.642Z,4.20
2023-01-18T20:56:28.443Z,5.00
2023-01-18T20:58:56.961Z,4.10
2023-01-18T21:01:24.455Z,5.75
2023-01-18T21:03:55.696Z,5.43
2023-01-18T21:06:23.059Z,5.50
2023-01-18T21:08:54.243Z,5.00
2023-01-18T21:11:26.363Z,6.38
2023-01-18T21:13:59.025Z,4.60
2023-01-18T21:16:27.599Z,4.95
2023-01-18T21:18:56.246Z,4.83
2023-01-18T21:21:23.937Z,3.33
2023-01-18T21:23:51.602Z,5.28
2023-01-18T21:26:18.895Z,4.50
2023-01-18T21:28:46.434Z,5.55
2023-01-18T21:31:13.698Z,4.63
2023-01-18T21:33:40.989Z,4.07
2023-01-18T21:36:09.680Z,4.28
2023-01-18T21:38:37.003Z,3.97
2023-01-18T21:41:23.479Z,3.88
2023-01-18T21:44:11.540Z,2.73
2023-01-18T21:46:39.901Z,2.00
2023-01-18T21:49:07.255Z,9.70
2023-01-18T21:51:53.291Z,10.13
2023-01-18T21:54:22.448Z,7.57
2023-01-18T21:56:51.963Z,3.60
2023-01-18T21:59:19.292Z,4.20
2023-01-18T22:01:47.544Z,8.35
2023-01-18T22:04:34.919Z,7.50
2023-01-18T22:07:04.222Z,7.60
2023-01-18T22:09:31.615Z,5.53
2023-01-18T22:11:59.651Z,3.60
2023-01-18T22:14:27.050Z,3.60
2023-01-18T22:16:54.460Z,3.38
2023-01-18T22:19:21.767Z,2.28
2023-01-18T22:21:49.436Z,2.95
2023-01-18T22:24:17.180Z,3.22
2023-01-18T22:26:45.232Z,2.80
2023-01-18T22:29:12.608Z,3.05
2023-01-18T22:31:40.113Z,3.15
2023-01-18T22:34:07.680Z,3.35
2023-01-18T22:36:35.064Z,3.05
2023-01-18T22:39:02.488Z,4.40
2023-01-18T22:41:29.832Z,3.50
2023-01-18T22:43:57.303Z,4.40
2023-01-18T22:46:25.170Z,4.77
2023-01-18T22:48:52.462Z,5.85
2023-01-18T22:51:24.308Z,5.55
2023-01-18T22:53:51.970Z,5.20
2023-01-18T22:56:20.565Z,5.93
2023-01-18T22:58:48.294Z,5.33
2023-01-18T23:01:21.339Z,4.85
2023-01-18T23:03:50.120Z,5.07
2023-01-18T23:06:18.002Z,6.32
2023-01-18T23:08:45.945Z,4.47
2023-01-18T23:11:17.770Z,5.95
2023-01-18T23:14:06.673Z,5.60
2023-01-18T23:16:52.769Z,5.13
2023-01-18T23:19:20.118Z,4.53
2023-01-18T23:21:47.388Z,4.30
2023-01-18T23:24:14.664Z,3.90
2023-01-18T23:26:41.867Z,4.57
2023-01-18T23:29:09.112Z,4.70
2023-01-18T23:31:36.366Z,5.57
2023-01-18T23:34:03.652Z,5.55
2023-01-18T23:36:30.942Z,4.53
2023-01-18T23:39:16.529Z,4.82
2023-01-18T23:42:02.561Z,6.10
2023-01-18T23:44:48.436Z,5.07
2023-01-18T23:47:34.124Z,4.20
2023-01-18T23:50:20.057Z,4.70
2023-01-18T23:53:05.834Z,4.10
2023-01-18T23:55:33.097Z,5.35
2023-01-18T23:58:00.893Z,4.45
